Time;durP1;ratioP1;P1;durP2;ratioP2;P2;SDS_P1;SDS_P2;PMS_P1;PMS_P2;Temp;Humidity;BMP_temperature;BMP_pressure;BME280_temperature;BME280_humidity;BME280_pressure;Samples;Min_cycle;Max_cycle;Signal;HPM_P1;HPM_P2
2023/08/16 00:01:55;;;;;;;0.10;0.10;;;14.00;54.10;;;;;;5073281;28;20195;-58
2023/08/16 00:04:25;;;;;;;0.10;0.10;;;14.00;54.00;;;;;;5073884;28;20557;-57
2023/08/16 00:06:56;;;;;;;0.10;0.10;;;14.10;54.00;;;;;;5073308;28;20322;-53
2023/08/16 00:09:28;;;;;;;0.20;0.20;;;14.10;54.00;;;;;;5072752;28;20237;-56
2023/08/16 00:11:59;;;;;;;0.10;0.10;;;14.10;54.00;;;;;;5072229;28;20191;-57
2023/08/16 00:14:30;;;;;;;0.03;0.03;;;14.10;54.00;;;;;;5072991;28;20662;-58
2023/08/16 00:17:00;;;;;;;0.17;0.17;;;14.10;54.00;;;;;;5072823;28;20207;-56
2023/08/16 00:19:31;;;;;;;0.13;0.13;;;14.10;54.20;;;;;;5072596;28;20191;-58
2023/08/16 00:22:02;;;;;;;0.20;0.20;;;14.10;54.30;;;;;;5072041;28;20604;-54
2023/08/16 00:24:34;;;;;;;0.10;0.10;;;14.10;54.30;;;;;;5072578;28;20199;-58
2023/08/16 00:27:05;;;;;;;0.10;0.10;;;14.10;54.30;;;;;;5071495;28;20249;-55
2023/08/16 00:29:36;;;;;;;0.10;0.10;;;14.10;54.40;;;;;;5072398;28;20206;-58
2023/08/16 00:32:07;;;;;;;0.10;0.10;;;14.10;54.40;;;;;;5072021;28;20187;-58
2023/08/16 00:34:38;;;;;;;0.00;0.00;;;14.20;54.40;;;;;;5072467;28;20187;-59
2023/08/16 00:37:09;;;;;;;0.10;0.10;;;14.20;54.40;;;;;;5072184;28;20502;-58
2023/08/16 00:39:43;;;;;;;0.03;0.03;;;14.20;54.50;;;;;;5071675;28;20195;-59
2023/08/16 00:42:14;;;;;;;0.05;0.05;;;14.20;54.50;;;;;;5072375;28;20194;-58
2023/08/16 00:44:45;;;;;;;0.10;0.10;;;14.20;54.60;;;;;;5072247;28;20544;-58
2023/08/16 00:47:16;;;;;;;0.10;0.10;;;14.20;54.40;;;;;;5071560;28;20237;-58
2023/08/16 00:49:47;;;;;;;0.10;0.10;;;14.20;54.40;;;;;;5072119;28;20206;-59
2023/08/16 00:52:17;;;;;;;0.10;0.10;;;14.20;54.60;;;;;;5071958;28;20187;-59
2023/08/16 00:54:50;;;;;;;0.10;0.10;;;14.20;54.70;;;;;;5072394;28;20199;-59
2023/08/16 00:57:21;;;;;;;0.10;0.10;;;14.20;54.70;;;;;;5071176;28;20607;-59
2023/08/16 00:59:51;;;;;;;0.10;0.10;;;14.30;54.80;;;;;;5071670;28;20206;-58
2023/08/16 01:02:23;;;;;;;0.10;0.10;;;14.30;54.80;;;;;;5071375;28;20206;-59
2023/08/16 01:04:54;;;;;;;0.10;0.10;;;14.30;54.80;;;;;;5072205;28;20199;-59
2023/08/16 01:07:25;;;;;;;0.10;0.10;;;14.30;54.80;;;;;;5071926;28;20223;-57
2023/08/16 01:09:57;;;;;;;0.10;0.10;;;14.30;54.80;;;;;;5071702;28;20198;-58
2023/08/16 01:12:34;;;;;;;0.10;0.10;;;14.30;54.80;;;;;;5072423;28;20199;-59
2023/08/16 01:15:10;;;;;;;0.10;0.10;;;14.30;54.80;;;;;;5071372;28;20205;-57
2023/08/16 01:17:41;;;;;;;0.10;0.10;;;14.40;54.80;;;;;;5072124;28;20222;-59
2023/08/16 01:20:12;;;;;;;0.10;0.10;;;14.40;54.90;;;;;;5071266;28;20202;-58
2023/08/16 01:22:56;;;;;;;0.10;0.10;;;14.40;54.90;;;;;;5070915;28;20194;-58
2023/08/16 01:25:38;;;;;;;0.00;0.00;;;14.40;55.00;;;;;;5071348;28;20230;-58
2023/08/16 01:28:12;;;;;;;0.10;0.10;;;14.40;54.90;;;;;;5070175;28;20694;-59
2023/08/16 01:30:45;;;;;;;0.10;0.10;;;14.40;54.80;;;;;;5071415;28;20557;-59
2023/08/16 01:33:18;;;;;;;0.10;0.10;;;14.40;54.90;;;;;;5052079;28;20210;-58
2023/08/16 01:35:49;;;;;;;0.08;0.08;;;14.40;54.80;;;;;;5051472;28;20198;-58
2023/08/16 01:38:20;;;;;;;0.05;0.05;;;14.40;54.80;;;;;;5070966;28;20226;-59
2023/08/16 01:40:56;;;;;;;0.00;0.00;;;14.50;54.80;;;;;;5070924;28;20198;-59
2023/08/16 01:43:29;;;;;;;0.10;0.10;;;14.50;54.90;;;;;;5071247;28;20232;-59
2023/08/16 01:46:01;;;;;;;0.10;0.10;;;14.50;54.90;;;;;;5071573;28;20205;-59
2023/08/16 01:48:33;;;;;;;0.10;0.10;;;14.50;55.00;;;;;;5070429;28;20661;-60
2023/08/16 01:51:04;;;;;;;0.10;0.10;;;14.50;55.00;;;;;;5073465;28;20198;-59
2023/08/16 01:53:36;;;;;;;0.10;0.10;;;14.50;55.60;;;;;;5082767;28;20659;-59
2023/08/16 01:56:06;;;;;;;0.10;0.10;;;14.50;55.10;;;;;;5071521;28;20195;-59
2023/08/16 01:58:39;;;;;;;0.10;0.10;;;14.50;55.10;;;;;;5070878;28;20248;-58
2023/08/16 02:01:10;;;;;;;0.10;0.10;;;14.50;55.10;;;;;;5071512;28;20198;-58
2023/08/16 02:03:40;;;;;;;0.10;0.10;;;14.50;55.00;;;;;;5070426;28;20206;-58
2023/08/16 02:06:11;;;;;;;0.10;0.10;;;14.50;54.90;;;;;;5071090;28;20206;-59
2023/08/16 02:08:41;;;;;;;0.10;0.10;;;14.50;55.00;;;;;;5071387;28;20206;-58
2023/08/16 02:11:12;;;;;;;0.10;0.10;;;14.60;54.90;;;;;;5070904;28;20561;-59
2023/08/16 02:13:45;;;;;;;0.10;0.10;;;14.60;54.90;;;;;;5071702;28;20203;-59
2023/08/16 02:16:16;;;;;;;0.10;0.10;;;14.60;54.90;;;;;;5069671;28;20195;-58
2023/08/16 02:18:46;;;;;;;0.10;0.10;;;14.60;54.80;;;;;;5070432;28;20613;-58
2023/08/16 02:21:17;;;;;;;0.10;0.10;;;14.60;54.80;;;;;;5070606;28;20199;-57
2023/08/16 02:23:47;;;;;;;0.10;0.10;;;14.60;54.80;;;;;;5074234;28;20206;-58
2023/08/16 02:26:18;;;;;;;0.10;0.10;;;14.60;54.80;;;;;;5074012;28;20642;-57
2023/08/16 02:28:51;;;;;;;0.10;0.10;;;14.60;54.80;;;;;;5074780;28;20194;-59
2023/08/16 02:31:22;;;;;;;0.10;0.10;;;14.60;54.80;;;;;;5076715;28;20199;-59
2023/08/16 02:33:52;;;;;;;0.10;0.10;;;14.60;54.80;;;;;;5095019;28;20643;-58
2023/08/16 02:36:23;;;;;;;0.10;0.10;;;14.60;54.80;;;;;;5095765;28;20205;-59
2023/08/16 02:38:54;;;;;;;0.08;0.08;;;14.60;54.80;;;;;;5095722;28;20229;-58
2023/08/16 02:41:24;;;;;;;0.00;0.00;;;14.60;54.80;;;;;;5095487;28;20277;-57
2023/08/16 02:43:57;;;;;;;0.03;0.03;;;14.60;54.80;;;;;;5095241;28;20549;-59
2023/08/16 02:46:28;;;;;;;0.10;0.10;;;14.60;54.80;;;;;;5076239;28;20550;-60
2023/08/16 02:48:58;;;;;;;0.10;0.10;;;14.60;54.70;;;;;;5075071;28;20661;-60
2023/08/16 02:51:29;;;;;;;0.10;0.10;;;14.60;54.70;;;;;;5074733;28;20229;-58
2023/08/16 02:53:59;;;;;;;0.10;0.10;;;14.60;54.70;;;;;;5074985;28;20226;-59
2023/08/16 02:56:30;;;;;;;0.10;0.10;;;14.70;54.70;;;;;;5074777;28;20230;-58
2023/08/16 02:59:03;;;;;;;0.10;0.10;;;14.70;54.70;;;;;;5074532;28;20199;-60
2023/08/16 03:01:34;;;;;;;0.10;0.10;;;14.70;54.70;;;;;;5074474;28;20202;-59
2023/08/16 03:04:04;;;;;;;0.00;0.00;;;14.70;54.70;;;;;;5074614;28;20205;-58
2023/08/16 03:06:35;;;;;;;0.10;0.10;;;14.70;54.80;;;;;;5074136;28;20245;-58
2023/08/16 03:09:05;;;;;;;0.10;0.10;;;14.70;54.80;;;;;;5074767;28;20205;-58
2023/08/16 03:11:36;;;;;;;0.10;0.10;;;14.70;54.70;;;;;;5074152;28;20654;-58
2023/08/16 03:14:09;;;;;;;0.10;0.10;;;14.70;54.70;;;;;;5074647;28;20194;-59
2023/08/16 03:16:39;;;;;;;0.10;0.10;;;14.70;54.80;;;;;;5074459;28;20219;-59
2023/08/16 03:19:10;;;;;;;0.10;0.10;;;14.70;54.70;;;;;;5073923;28;20612;-58
2023/08/16 03:21:40;;;;;;;0.10;0.10;;;14.70;54.70;;;;;;5074275;28;20194;-59
2023/08/16 03:24:11;;;;;;;0.10;0.10;;;14.70;54.80;;;;;;5074212;28;20202;-59
2023/08/16 03:26:42;;;;;;;0.10;0.10;;;14.70;54.80;;;;;;5074204;28;20222;-60
2023/08/16 03:29:14;;;;;;;0.10;0.10;;;14.70;54.80;;;;;;5074669;28;20241;-59
2023/08/16 03:31:45;;;;;;;0.10;0.10;;;14.70;54.80;;;;;;5074450;28;20281;-58
2023/08/16 03:34:15;;;;;;;0.10;0.10;;;14.70;54.80;;;;;;5074346;28;20682;-59
2023/08/16 03:36:46;;;;;;;0.10;0.10;;;14.70;54.80;;;;;;5074196;28;20218;-58
2023/08/16 03:39:17;;;;;;;0.10;0.10;;;14.70;54.80;;;;;;5074605;28;20194;-60
2023/08/16 03:41:47;;;;;;;0.10;0.10;;;14.70;54.80;;;;;;5074248;28;20691;-57
2023/08/16 03:44:20;;;;;;;0.10;0.10;;;14.70;54.80;;;;;;5074492;28;20199;-59
2023/08/16 03:46:50;;;;;;;0.10;0.10;;;14.70;54.80;;;;;;5073989;28;20219;-60
2023/08/16 03:49:21;;;;;;;0.10;0.10;;;14.70;54.80;;;;;;5073967;28;20615;-59
2023/08/16 03:51:52;;;;;;;0.10;0.10;;;14.70;54.80;;;;;;5073923;28;20205;-60
2023/08/16 03:54:22;;;;;;;0.10;0.10;;;14.70;54.80;;;;;;5073910;28;20203;-60
2023/08/16 03:56:53;;;;;;;0.10;0.10;;;14.70;54.80;;;;;;5073626;28;20210;-60
2023/08/16 03:59:25;;;;;;;0.10;0.10;;;14.70;54.80;;;;;;5073893;28;20202;-60
2023/08/16 04:01:56;;;;;;;0.10;0.10;;;14.70;54.80;;;;;;5073656;28;20561;-59
2023/08/16 04:04:27;;;;;;;0.10;0.10;;;14.70;54.80;;;;;;5074174;28;20245;-60
2023/08/16 04:06:57;;;;;;;0.10;0.10;;;14.70;54.80;;;;;;5073727;28;20254;-60
2023/08/16 04:09:28;;;;;;;0.10;0.10;;;14.70;54.80;;;;;;5073808;28;20233;-59
2023/08/16 04:12:00;;;;;;;0.10;0.10;;;14.70;54.80;;;;;;5073633;28;20234;-59
2023/08/16 04:14:33;;;;;;;0.10;0.10;;;14.70;54.80;;;;;;5073704;28;20289;-60
2023/08/16 04:17:03;;;;;;;0.10;0.10;;;14.70;54.80;;;;;;5073730;28;20265;-60
2023/08/16 04:19:34;;;;;;;0.00;0.00;;;14.70;54.80;;;;;;5073136;28;20197;-59
2023/08/16 04:22:05;;;;;;;0.00;0.00;;;14.70;54.80;;;;;;5073452;28;20202;-59
2023/08/16 04:24:36;;;;;;;0.10;0.10;;;14.80;54.80;;;;;;5073445;28;20250;-58
2023/08/16 04:27:07;;;;;;;0.10;0.10;;;14.80;54.80;;;;;;5072685;28;20210;-59
2023/08/16 04:29:40;;;;;;;0.10;0.10;;;14.80;54.80;;;;;;5072707;28;20199;-60
2023/08/16 04:32:10;;;;;;;0.10;0.10;;;14.70;54.80;;;;;;5072909;28;20202;-60
2023/08/16 04:34:41;;;;;;;0.10;0.10;;;14.70;54.80;;;;;;5073196;28;20202;-59
2023/08/16 04:37:12;;;;;;;0.03;0.03;;;14.80;55.00;;;;;;5070233;28;20218;-59
2023/08/16 04:39:42;;;;;;;0.10;0.10;;;14.70;54.90;;;;;;5072591;28;20191;-58
2023/08/16 04:42:13;;;;;;;0.10;0.10;;;14.80;55.00;;;;;;5074085;28;20195;-59
2023/08/16 04:44:45;;;;;;;0.10;0.10;;;14.80;55.00;;;;;;5078477;28;20191;-59
2023/08/16 04:47:16;;;;;;;0.10;0.10;;;14.70;54.90;;;;;;5072720;28;20214;-59
2023/08/16 04:49:47;;;;;;;0.05;0.05;;;14.80;55.00;;;;;;5071666;28;20194;-58
2023/08/16 04:52:17;;;;;;;0.10;0.10;;;14.80;55.00;;;;;;5071934;28;20194;-58
2023/08/16 04:54:48;;;;;;;0.10;0.10;;;14.80;55.00;;;;;;5071836;28;20615;-58
2023/08/16 04:57:19;;;;;;;0.10;0.10;;;14.80;54.90;;;;;;5072325;28;20690;-57
2023/08/16 04:59:51;;;;;;;0.10;0.10;;;14.80;54.90;;;;;;5072164;28;20198;-58
2023/08/16 05:02:22;;;;;;;0.10;0.10;;;14.80;54.90;;;;;;5072565;28;20198;-59
2023/08/16 05:04:52;;;;;;;0.10;0.10;;;14.80;54.90;;;;;;5071528;28;20199;-58
2023/08/16 05:07:23;;;;;;;0.03;0.03;;;14.80;54.90;;;;;;5071312;28;20229;-58
2023/08/16 05:09:54;;;;;;;0.10;0.10;;;14.80;54.90;;;;;;5072092;28;20193;-58
2023/08/16 05:12:24;;;;;;;0.10;0.10;;;14.80;54.80;;;;;;5072000;28;20202;-57
2023/08/16 05:14:57;;;;;;;0.10;0.10;;;14.80;54.80;;;;;;5072211;28;20569;-57
2023/08/16 05:17:27;;;;;;;0.10;0.10;;;14.80;54.80;;;;;;5071588;28;20230;-57
2023/08/16 05:19:58;;;;;;;0.10;0.10;;;14.80;54.80;;;;;;5072014;28;20194;-56
2023/08/16 05:22:29;;;;;;;0.03;0.03;;;14.80;54.80;;;;;;5071536;28;20206;-58
2023/08/16 05:24:59;;;;;;;0.00;0.00;;;14.80;54.80;;;;;;5071312;28;20217;-58
2023/08/16 05:27:30;;;;;;;0.03;0.03;;;14.80;54.80;;;;;;5072382;28;20633;-58
2023/08/16 05:30:03;;;;;;;0.00;0.00;;;14.80;54.70;;;;;;5092007;28;20240;-58
2023/08/16 05:32:34;;;;;;;0.10;0.10;;;14.70;54.70;;;;;;5085419;28;20191;-58
2023/08/16 05:35:04;;;;;;;0.10;0.10;;;14.70;54.70;;;;;;5072170;28;20199;-57
2023/08/16 05:37:35;;;;;;;0.10;0.10;;;14.70;54.70;;;;;;5071893;28;20218;-58
2023/08/16 05:40:06;;;;;;;0.10;0.10;;;14.70;54.80;;;;;;5070952;28;20191;-58
2023/08/16 05:42:36;;;;;;;0.03;0.03;;;14.70;54.80;;;;;;5071573;28;20217;-58
2023/08/16 05:45:10;;;;;;;0.10;0.10;;;14.80;54.80;;;;;;5071379;28;20252;-56
2023/08/16 05:47:40;;;;;;;0.17;0.17;;;14.70;54.80;;;;;;5070967;28;20221;-56
2023/08/16 05:50:11;;;;;;;0.10;0.10;;;14.70;54.80;;;;;;5071630;28;20199;-59
2023/08/16 05:52:42;;;;;;;0.10;0.10;;;14.70;54.70;;;;;;5072775;28;20191;-57
2023/08/16 05:55:13;;;;;;;0.08;0.08;;;14.70;54.80;;;;;;5071549;28;20655;-59
2023/08/16 05:57:43;;;;;;;0.00;0.00;;;14.70;54.70;;;;;;5070668;28;20226;-58
2023/08/16 06:00:17;;;;;;;0.10;0.10;;;14.70;54.80;;;;;;5070832;28;20224;-59
2023/08/16 06:02:47;;;;;;;0.10;0.10;;;14.70;54.80;;;;;;5071197;28;20639;-58
2023/08/16 06:05:18;;;;;;;0.10;0.10;;;14.70;54.70;;;;;;5070964;28;20693;-58
2023/08/16 06:07:49;;;;;;;0.10;0.10;;;14.70;54.70;;;;;;5070711;28;20781;-59
2023/08/16 06:10:20;;;;;;;0.10;0.10;;;14.70;54.70;;;;;;5070884;28;20237;-57
2023/08/16 06:12:50;;;;;;;0.10;0.10;;;14.70;54.70;;;;;;5071201;28;20206;-59
2023/08/16 06:15:23;;;;;;;0.00;0.00;;;14.70;54.70;;;;;;5071218;28;20206;-58
2023/08/16 06:17:53;;;;;;;0.00;0.00;;;14.70;54.70;;;;;;5070626;28;20219;-60
2023/08/16 06:20:24;;;;;;;0.10;0.10;;;14.70;54.70;;;;;;5070766;28;20198;-55
2023/08/16 06:22:55;;;;;;;0.10;0.10;;;14.70;54.90;;;;;;5073912;28;20198;-59
2023/08/16 06:25:26;;;;;;;0.10;0.10;;;14.70;54.80;;;;;;5090824;28;20226;-59
2023/08/16 06:27:56;;;;;;;0.10;0.10;;;14.70;54.80;;;;;;5084736;28;20247;-59
2023/08/16 06:30:29;;;;;;;0.08;0.08;;;14.70;54.80;;;;;;5070805;28;20195;-58
2023/08/16 06:32:59;;;;;;;0.10;0.10;;;14.70;54.80;;;;;;5071221;28;20199;-58
2023/08/16 06:35:30;;;;;;;0.00;0.00;;;14.70;54.80;;;;;;5071079;28;20286;-56
2023/08/16 06:38:02;;;;;;;0.10;0.10;;;14.70;55.40;;;;;;5071182;28;20218;-59
2023/08/16 06:40:33;;;;;;;0.10;0.10;;;14.70;55.70;;;;;;5070741;28;20193;-58
2023/08/16 06:43:03;;;;;;;0.10;0.10;;;14.70;55.80;;;;;;5087267;28;20198;-59
2023/08/16 06:45:36;;;;;;;0.10;0.10;;;14.70;55.60;;;;;;5091457;28;20191;-59
2023/08/16 06:48:07;;;;;;;0.10;0.10;;;14.70;55.50;;;;;;5084979;28;20627;-57
2023/08/16 06:50:38;;;;;;;0.10;0.10;;;14.70;55.40;;;;;;5065033;28;20190;-59
2023/08/16 06:53:08;;;;;;;0.10;0.10;;;14.70;55.30;;;;;;5071034;28;20195;-59
2023/08/16 06:55:39;;;;;;;0.10;0.10;;;14.70;55.20;;;;;;5070559;28;20206;-59
2023/08/16 06:58:10;;;;;;;0.05;0.05;;;14.70;55.20;;;;;;5070936;28;20288;-59
2023/08/16 07:00:47;;;;;;;0.10;0.10;;;14.70;55.20;;;;;;5070952;28;20611;-58
2023/08/16 07:03:18;;;;;;;0.08;0.08;;;14.70;55.10;;;;;;5070644;28;20722;-58
2023/08/16 07:05:49;;;;;;;0.10;0.10;;;14.70;55.10;;;;;;5070396;28;20199;-59
2023/08/16 07:08:19;;;;;;;0.10;0.10;;;14.70;55.00;;;;;;5071790;28;20219;-59
2023/08/16 07:10:51;;;;;;;0.03;0.03;;;14.70;55.00;;;;;;5074283;28;20677;-59
2023/08/16 07:13:21;;;;;;;0.10;0.10;;;14.70;55.00;;;;;;5074684;28;20202;-59
2023/08/16 07:15:54;;;;;;;0.05;0.05;;;14.70;55.00;;;;;;5074668;28;20198;-59
2023/08/16 07:18:25;;;;;;;0.08;0.08;;;14.70;54.90;;;;;;5074569;28;20217;-58
2023/08/16 07:20:55;;;;;;;0.10;0.10;;;14.70;54.90;;;;;;5074035;28;20270;-59
2023/08/16 07:23:26;;;;;;;0.10;0.10;;;14.60;54.80;;;;;;5074542;28;20614;-59
2023/08/16 07:25:58;;;;;;;0.17;0.17;;;14.70;54.90;;;;;;5073657;28;20195;-59
2023/08/16 07:28:29;;;;;;;0.10;0.10;;;14.70;54.80;;;;;;5074303;28;20255;-59
2023/08/16 07:31:02;;;;;;;0.10;0.10;;;14.60;54.80;;;;;;5074456;28;20194;-58
2023/08/16 07:33:34;;;;;;;0.10;0.10;;;14.60;54.80;;;;;;5074441;28;20195;-59
2023/08/16 07:36:05;;;;;;;0.10;0.10;;;14.60;55.40;;;;;;5074325;28;20202;-59
2023/08/16 07:38:36;;;;;;;0.10;0.10;;;14.60;54.70;;;;;;5074354;28;20199;-59
2023/08/16 07:41:07;;;;;;;0.10;0.10;;;14.60;54.80;;;;;;5074123;28;20202;-59
2023/08/16 07:43:37;;;;;;;0.10;0.10;;;14.60;54.80;;;;;;5074034;28;20195;-58
2023/08/16 07:46:10;;;;;;;0.10;0.10;;;14.60;54.70;;;;;;5074061;28;20650;-59
2023/08/16 07:48:40;;;;;;;0.10;0.10;;;14.60;54.70;;;;;;5073824;28;20219;-57
2023/08/16 07:51:11;;;;;;;0.10;0.10;;;14.60;54.80;;;;;;5073860;28;20195;-59
2023/08/16 07:53:42;;;;;;;0.10;0.10;;;14.60;54.70;;;;;;5073868;28;20195;-59
2023/08/16 07:56:13;;;;;;;0.10;0.10;;;14.60;54.70;;;;;;5073265;28;20551;-59
2023/08/16 07:58:43;;;;;;;0.10;0.10;;;14.60;54.70;;;;;;5073776;28;20238;-59
2023/08/16 08:01:16;;;;;;;0.10;0.10;;;14.60;54.70;;;;;;5073530;28;20191;-59
2023/08/16 08:03:47;;;;;;;0.10;0.10;;;14.60;54.70;;;;;;5072738;28;20191;-59
2023/08/16 08:06:18;;;;;;;0.10;0.10;;;14.60;54.70;;;;;;5073685;28;20460;-59
2023/08/16 08:08:49;;;;;;;0.00;0.00;;;14.60;54.70;;;;;;5073642;28;20246;-59
2023/08/16 08:11:19;;;;;;;0.05;0.05;;;14.60;54.70;;;;;;5072998;28;20238;-58
2023/08/16 08:13:50;;;;;;;0.08;0.08;;;14.60;54.60;;;;;;5073773;28;20195;-59
2023/08/16 08:16:22;;;;;;;0.10;0.10;;;14.60;54.60;;;;;;5073478;28;20206;-59
2023/08/16 08:18:53;;;;;;;0.10;0.10;;;14.50;54.60;;;;;;5073619;28;20191;-59
2023/08/16 08:21:24;;;;;;;0.10;0.10;;;14.50;54.60;;;;;;5073695;28;20199;-56
2023/08/16 08:23:54;;;;;;;0.10;0.10;;;14.50;54.60;;;;;;5073741;28;20946;-59
2023/08/16 08:26:26;;;;;;;0.10;0.10;;;14.50;54.60;;;;;;5072571;28;20226;-59
2023/08/16 08:28:57;;;;;;;0.10;0.10;;;14.50;54.70;;;;;;5073051;28;20254;-59
2023/08/16 08:31:29;;;;;;;0.10;0.10;;;14.50;54.70;;;;;;5072723;28;20187;-59
2023/08/16 08:34:00;;;;;;;0.10;0.10;;;14.50;54.70;;;;;;5073106;28;20199;-59
2023/08/16 08:36:30;;;;;;;0.10;0.10;;;14.50;54.70;;;;;;5072261;28;20210;-59
2023/08/16 08:39:02;;;;;;;0.10;0.10;;;14.50;54.60;;;;;;5072886;28;20195;-59
2023/08/16 08:41:34;;;;;;;0.10;0.10;;;14.50;54.60;;;;;;5071526;28;20278;-59
2023/08/16 08:44:05;;;;;;;0.10;0.10;;;14.50;54.60;;;;;;5072792;28;20201;-59
2023/08/16 08:46:38;;;;;;;0.00;0.00;;;14.50;54.60;;;;;;5072558;28;20690;-59
2023/08/16 08:49:09;;;;;;;0.10;0.10;;;14.50;54.70;;;;;;5072497;28;20284;-58
2023/08/16 08:51:41;;;;;;;0.10;0.10;;;14.50;54.70;;;;;;5072807;28;20697;-58
2023/08/16 08:54:13;;;;;;;0.10;0.10;;;14.50;54.90;;;;;;5069634;28;20639;-56
2023/08/16 08:56:44;;;;;;;0.10;0.10;;;14.50;55.20;;;;;;5072037;28;20258;-59
2023/08/16 08:59:15;;;;;;;0.00;0.00;;;14.50;55.20;;;;;;5072278;28;20674;-58
2023/08/16 09:01:49;;;;;;;0.10;0.10;;;14.50;55.10;;;;;;5071462;28;20195;-58
2023/08/16 09:04:20;;;;;;;0.10;0.10;;;14.50;55.10;;;;;;5071961;28;20191;-58
2023/08/16 09:06:50;;;;;;;0.10;0.10;;;14.50;55.10;;;;;;5072208;28;20227;-59
2023/08/16 09:09:23;;;;;;;0.10;0.10;;;14.50;55.20;;;;;;5071543;28;20214;-59
2023/08/16 09:11:54;;;;;;;0.10;0.10;;;14.50;55.20;;;;;;5072724;28;20229;-59
2023/08/16 09:14:25;;;;;;;0.10;0.10;;;14.50;55.10;;;;;;5071533;28;20214;-59
2023/08/16 09:16:57;;;;;;;0.10;0.10;;;14.50;55.10;;;;;;5072183;28;20215;-59
2023/08/16 09:19:28;;;;;;;0.10;0.10;;;14.50;55.10;;;;;;5071563;28;20474;-59
2023/08/16 09:22:00;;;;;;;0.10;0.10;;;14.50;55.00;;;;;;5070995;28;20673;-59
2023/08/16 09:24:31;;;;;;;0.03;0.03;;;14.50;55.00;;;;;;5070461;28;20202;-59
2023/08/16 09:27:03;;;;;;;0.10;0.10;;;14.50;55.00;;;;;;5071034;28;20218;-59
2023/08/16 09:29:34;;;;;;;0.10;0.10;;;14.50;55.00;;;;;;5071476;28;20271;-59
2023/08/16 09:32:09;;;;;;;0.00;0.00;;;14.50;55.00;;;;;;5070633;28;20236;-58
2023/08/16 09:34:40;;;;;;;0.10;0.10;;;14.50;55.00;;;;;;5071227;28;20234;-59
2023/08/16 09:37:10;;;;;;;0.10;0.10;;;14.50;55.00;;;;;;5070898;28;20233;-59
2023/08/16 09:39:56;;;;;;;0.10;0.10;;;14.50;55.00;;;;;;5071123;28;20205;-59
2023/08/16 09:42:34;;;;;;;0.00;0.00;;;14.50;55.00;;;;;;5070920;28;20651;-59
2023/08/16 09:45:06;;;;;;;0.10;0.10;;;14.50;55.00;;;;;;5071345;28;20194;-59
2023/08/16 09:47:45;;;;;;;0.10;0.10;;;14.50;55.00;;;;;;5071428;28;20207;-59
2023/08/16 09:50:20;;;;;;;0.10;0.10;;;14.50;55.00;;;;;;5071377;28;20620;-59
2023/08/16 09:52:51;;;;;;;0.10;0.10;;;14.50;54.90;;;;;;5070516;28;20190;-59
2023/08/16 09:55:30;;;;;;;0.10;0.10;;;14.50;54.90;;;;;;5071010;28;20203;-59
2023/08/16 09:58:02;;;;;;;0.10;0.10;;;14.50;54.90;;;;;;5070232;28;20211;-59
2023/08/16 10:00:34;;;;;;;0.10;0.10;;;14.50;54.90;;;;;;5071330;28;20195;-59
2023/08/16 10:03:08;;;;;;;0.10;0.10;;;14.50;54.90;;;;;;5070865;28;20273;-59
2023/08/16 10:05:40;;;;;;;0.10;0.10;;;14.50;54.90;;;;;;5070916;28;20677;-59
2023/08/16 10:08:11;;;;;;;0.10;0.10;;;14.50;54.90;;;;;;5071468;28;20629;-59
2023/08/16 10:10:42;;;;;;;0.10;0.10;;;14.50;54.90;;;;;;5070970;28;20226;-59
2023/08/16 10:13:14;;;;;;;0.10;0.10;;;14.50;54.80;;;;;;5076478;28;20190;-59
2023/08/16 10:15:48;;;;;;;0.10;0.10;;;14.50;54.80;;;;;;5091201;28;20190;-59
2023/08/16 10:18:23;;;;;;;0.10;0.10;;;14.50;54.80;;;;;;5078865;28;20261;-59
2023/08/16 10:20:59;;;;;;;0.10;0.10;;;14.50;54.80;;;;;;5071447;28;20201;-59
2023/08/16 10:23:32;;;;;;;0.08;0.08;;;14.40;54.80;;;;;;5070567;28;20199;-59
2023/08/16 10:26:06;;;;;;;0.03;0.03;;;14.40;54.80;;;;;;5070256;28;20202;-59
2023/08/16 10:28:38;;;;;;;0.10;0.10;;;14.40;54.70;;;;;;5069403;28;20186;-59
2023/08/16 10:31:10;;;;;;;0.10;0.10;;;14.40;54.80;;;;;;5071394;28;20229;-59
2023/08/16 10:33:46;;;;;;;0.10;0.10;;;14.40;54.80;;;;;;5070773;28;20277;-59
2023/08/16 10:36:17;;;;;;;0.10;0.10;;;14.40;54.80;;;;;;5070579;28;20692;-59
2023/08/16 10:38:54;;;;;;;0.10;0.10;;;14.40;54.80;;;;;;5079116;28;20190;-59
2023/08/16 10:41:25;;;;;;;0.10;0.10;;;14.40;54.80;;;;;;5090824;28;20209;-59
2023/08/16 10:43:57;;;;;;;0.10;0.10;;;14.40;54.80;;;;;;5075794;28;20661;-59
2023/08/16 10:46:32;;;;;;;0.10;0.10;;;14.40;54.80;;;;;;5074172;28;20215;-59
2023/08/16 10:49:05;;;;;;;0.10;0.10;;;14.40;54.70;;;;;;5074512;28;20665;-59
2023/08/16 10:51:46;;;;;;;0.10;0.10;;;14.40;55.30;;;;;;5074608;28;20278;-59
2023/08/16 10:54:17;;;;;;;0.10;0.10;;;14.40;54.70;;;;;;5074742;28;20195;-59
2023/08/16 10:56:49;;;;;;;0.10;0.10;;;14.40;54.70;;;;;;5074225;28;20302;-59
2023/08/16 10:59:20;;;;;;;0.05;0.05;;;14.40;54.70;;;;;;5076231;28;20199;-59
2023/08/16 11:01:51;;;;;;;0.10;0.10;;;14.40;54.70;;;;;;5073847;28;20202;-59
2023/08/16 11:04:24;;;;;;;0.10;0.10;;;14.40;54.80;;;;;;5074630;28;20274;-59
2023/08/16 11:06:55;;;;;;;0.10;0.10;;;14.40;54.70;;;;;;5073189;28;20222;-59
2023/08/16 11:09:25;;;;;;;0.10;0.10;;;14.40;54.70;;;;;;5073859;28;20743;-59
2023/08/16 11:11:56;;;;;;;0.10;0.10;;;14.40;54.80;;;;;;5073719;28;20202;-59
2023/08/16 11:14:26;;;;;;;0.10;0.10;;;14.30;54.80;;;;;;5073555;28;20647;-59
2023/08/16 11:16:58;;;;;;;0.10;0.10;;;14.30;54.80;;;;;;5074667;28;20221;-59
2023/08/16 11:19:31;;;;;;;0.10;0.10;;;14.40;54.90;;;;;;5074574;28;20244;-59
2023/08/16 11:22:03;;;;;;;0.10;0.10;;;14.40;54.90;;;;;;5074020;28;20226;-59
2023/08/16 11:24:34;;;;;;;0.10;0.10;;;14.40;54.80;;;;;;5073976;28;20234;-59
2023/08/16 11:27:07;;;;;;;0.03;0.03;;;14.40;54.80;;;;;;5073651;28;20679;-59
2023/08/16 11:29:37;;;;;;;0.10;0.10;;;14.40;54.80;;;;;;5074111;28;20252;-59
2023/08/16 11:32:08;;;;;;;0.10;0.10;;;14.40;54.80;;;;;;5074170;28;20199;-59
2023/08/16 11:34:41;;;;;;;0.10;0.10;;;14.40;54.80;;;;;;5085748;28;20186;-59
2023/08/16 11:37:19;;;;;;;0.00;0.00;;;14.30;54.80;;;;;;5093888;28;20221;-59
2023/08/16 11:40:02;;;;;;;0.10;0.10;;;14.40;54.80;;;;;;5093410;28;20231;-59
2023/08/16 11:42:33;;;;;;;0.10;0.10;;;14.30;54.80;;;;;;5093582;28;20209;-59
2023/08/16 11:45:04;;;;;;;0.10;0.10;;;14.30;54.70;;;;;;5094116;28;20195;-59
2023/08/16 11:47:35;;;;;;;0.10;0.10;;;14.30;54.80;;;;;;5054024;28;20717;-58
2023/08/16 11:50:10;;;;;;;0.00;0.00;;;14.30;54.80;;;;;;5054287;28;20234;-57
2023/08/16 11:52:41;;;;;;;0.10;0.10;;;14.30;54.80;;;;;;5054829;28;20206;-58
2023/08/16 11:55:16;;;;;;;0.10;0.10;;;14.30;54.80;;;;;;5073678;28;20195;-60
2023/08/16 11:57:51;;;;;;;0.10;0.10;;;14.30;54.80;;;;;;5073918;28;20571;-58
2023/08/16 12:00:30;;;;;;;0.10;0.10;;;14.30;54.80;;;;;;5073931;28;20199;-55
2023/08/16 12:03:03;;;;;;;0.10;0.10;;;14.30;54.80;;;;;;5073775;28;20279;-59
2023/08/16 12:05:40;;;;;;;0.10;0.10;;;14.30;54.80;;;;;;5073891;28;20194;-56
2023/08/16 12:08:11;;;;;;;0.10;0.10;;;14.30;54.80;;;;;;5074492;28;20263;-55
2023/08/16 12:10:41;;;;;;;0.10;0.10;;;14.30;54.80;;;;;;5073486;28;20230;-56
2023/08/16 12:13:17;;;;;;;0.10;0.10;;;14.30;54.80;;;;;;5073612;28;20203;-55
2023/08/16 12:15:47;;;;;;;0.10;0.10;;;14.30;54.80;;;;;;5073516;28;20194;-60
2023/08/16 12:18:19;;;;;;;0.10;0.10;;;14.30;54.80;;;;;;5073265;28;20296;-57
2023/08/16 12:20:52;;;;;;;0.10;0.10;;;14.30;54.80;;;;;;5073824;28;20234;-58
2023/08/16 12:23:23;;;;;;;0.10;0.10;;;14.30;54.80;;;;;;5073537;28;20202;-62
2023/08/16 12:25:54;;;;;;;0.10;0.10;;;14.20;54.70;;;;;;5073759;28;20202;-58
2023/08/16 12:28:24;;;;;;;0.10;0.10;;;14.20;54.70;;;;;;5073384;28;20250;-59
2023/08/16 12:30:55;;;;;;;0.10;0.10;;;14.20;54.80;;;;;;5073306;28;20258;-57
2023/08/16 12:33:26;;;;;;;0.10;0.10;;;14.20;54.80;;;;;;5073414;28;20663;-60
2023/08/16 12:35:58;;;;;;;0.10;0.10;;;14.20;54.80;;;;;;5072790;28;20206;-61
2023/08/16 12:38:29;;;;;;;0.10;0.10;;;14.20;54.70;;;;;;5073246;28;20217;-60
2023/08/16 12:41:00;;;;;;;0.00;0.00;;;14.20;54.80;;;;;;5074080;28;20202;-57
2023/08/16 12:43:30;;;;;;;0.10;0.10;;;14.20;54.70;;;;;;5073092;28;20199;-57
2023/08/16 12:46:05;;;;;;;0.10;0.10;;;14.20;54.80;;;;;;5072976;28;20199;-57
2023/08/16 12:48:36;;;;;;;0.10;0.10;;;14.20;55.30;;;;;;5073149;28;20552;-63
2023/08/16 12:51:08;;;;;;;0.10;0.10;;;14.20;54.70;;;;;;5072479;28;20686;-59
2023/08/16 12:53:39;;;;;;;0.10;0.10;;;14.20;54.70;;;;;;5071424;28;20205;-59
2023/08/16 12:56:10;;;;;;;0.10;0.10;;;14.20;54.70;;;;;;5072468;28;20646;-60
2023/08/16 12:58:40;;;;;;;0.10;0.10;;;14.20;54.70;;;;;;5072648;28;20195;-58
2023/08/16 13:01:11;;;;;;;0.10;0.10;;;14.20;54.70;;;;;;5072877;28;20203;-61
2023/08/16 13:03:41;;;;;;;0.10;0.10;;;14.20;54.80;;;;;;5072703;28;20274;-60
2023/08/16 13:06:16;;;;;;;0.10;0.10;;;14.20;54.70;;;;;;5071373;28;20607;-56
2023/08/16 13:08:46;;;;;;;0.10;0.10;;;14.10;54.80;;;;;;5072337;28;20223;-59
2023/08/16 13:11:17;;;;;;;0.10;0.10;;;14.10;54.70;;;;;;5072193;28;20222;-59